Time;durP1;ratioP1;P1;durP2;ratioP2;P2;SDS_P1;SDS_P2;PMS_P1;PMS_P2;Temp;Humidity;BMP_temperature;BMP_pressure;BME280_temperature;BME280_humidity;BME280_pressure;Samples;Min_cycle;Max_cycle;Signal;HPM_P1;HPM_P2
2022/02/02 00:02:08;;;;;;;25.10;3.47;;;;;;;;;;4977896;28;20050;-57
2022/02/02 00:04:41;;;;;;;42.22;3.80;;;;;;;;;;4985099;28;20062;-61
2022/02/02 00:07:13;;;;;;;36.67;4.65;;;;;;;;;;4981522;28;20062;-59
2022/02/02 00:09:49;;;;;;;28.00;3.00;;;;;;;;;;4984956;28;20062;-54
2022/02/02 00:12:20;;;;;;;31.83;3.78;;;;;;;;;;4979756;28;20522;-57
2022/02/02 00:15:01;;;;;;;23.10;2.90;;;;;;;;;;4985492;28;20058;-58
2022/02/02 00:17:43;;;;;;;28.30;3.05;;;;;;;;;;5000711;28;20145;-58
2022/02/02 00:20:18;;;;;;;34.75;3.22;;;;;;;;;;5002477;28;20054;-59
2022/02/02 00:22:47;;;;;;;27.95;3.33;;;;;;;;;;4996277;28;20586;-57
2022/02/02 00:25:18;;;;;;;32.92;3.03;;;;;;;;;;4981494;28;20050;-59
2022/02/02 00:27:49;;;;;;;36.15;3.95;;;;;;;;;;4984458;28;20073;-59
2022/02/02 00:30:20;;;;;;;35.38;4.75;;;;;;;;;;4996484;28;20070;-55
2022/02/02 00:35:32;;;;;;;44.78;5.45;;;;;;;;;;4988174;28;20055;-56
2022/02/02 00:37:58;;;;;;;32.78;4.03;;;;;;;;;;5001902;28;20050;-60
2022/02/02 00:40:25;;;;;;;26.15;3.47;;;;;;;;;;4997684;28;20050;-58
2022/02/02 00:42:52;;;;;;;32.55;3.80;;;;;;;;;;4992293;28;20057;-61
2022/02/02 00:45:20;;;;;;;32.28;3.63;;;;;;;;;;4986426;28;20050;-60
2022/02/02 00:47:50;;;;;;;37.45;3.67;;;;;;;;;;4993286;28;20064;-61
2022/02/02 00:50:17;;;;;;;35.30;3.72;;;;;;;;;;4983916;28;20077;-61
2022/02/02 00:52:49;;;;;;;39.30;4.78;;;;;;;;;;4992024;28;20182;-59
2022/02/02 00:55:16;;;;;;;35.90;4.03;;;;;;;;;;5001758;28;20058;-59
2022/02/02 00:57:42;;;;;;;30.95;3.22;;;;;;;;;;5009365;28;20061;-55
2022/02/02 01:00:09;;;;;;;33.65;3.70;;;;;;;;;;4986314;28;20140;-61
2022/02/02 01:02:37;;;;;;;21.30;3.17;;;;;;;;;;4990905;28;20089;-59
2022/02/02 01:05:04;;;;;;;24.23;2.60;;;;;;;;;;4983036;28;20142;-60
2022/02/02 01:07:45;;;;;;;23.42;3.47;;;;;;;;;;4992977;28;20120;-62
2022/02/02 01:10:18;;;;;;;29.88;4.25;;;;;;;;;;5003304;28;20138;-61
2022/02/02 01:12:53;;;;;;;24.50;3.20;;;;;;;;;;5009055;28;20058;-61
2022/02/02 01:18:25;;;;;;;20.50;3.60;;;;;;;;;;5005268;28;20050;-58
2022/02/02 01:20:58;;;;;;;42.55;5.20;;;;;;;;;;5001251;28;20054;-57
2022/02/02 01:28:54;;;;;;;35.47;4.45;;;;;;;;;;5004753;28;20108;-57
2022/02/02 01:31:21;;;;;;;19.50;3.35;;;;;;;;;;4984817;28;20046;-60
2022/02/02 01:33:49;;;;;;;39.20;3.90;;;;;;;;;;4989128;28;20077;-61
2022/02/02 01:36:16;;;;;;;31.48;4.00;;;;;;;;;;4983671;28;20114;-61
2022/02/02 01:38:45;;;;;;;38.80;4.13;;;;;;;;;;5005696;28;20050;-61
2022/02/02 01:41:19;;;;;;;;;;;;;;;;;;4985580;28;20057;-59
2022/02/02 01:43:52;;;;;;;24.98;2.35;;;;;;;;;;4991263;28;19926;-61
2022/02/02 01:46:20;;;;;;;31.58;4.15;;;;;;;;;;4999771;28;20061;-61
2022/02/02 01:48:53;;;;;;;34.08;3.45;;;;;;;;;;4991909;28;20091;-60
2022/02/02 01:51:49;;;;;;;29.95;4.35;;;;;;;;;;5000608;28;20139;-61
2022/02/02 01:54:34;;;;;;;43.70;4.43;;;;;;;;;;4987604;28;20050;-57
2022/02/02 01:57:07;;;;;;;25.88;3.00;;;;;;;;;;4997252;28;20046;-59
2022/02/02 01:59:39;;;;;;;32.60;3.45;;;;;;;;;;5003591;28;20053;-59
2022/02/02 02:02:06;;;;;;;25.42;3.13;;;;;;;;;;4980696;28;20061;-61
2022/02/02 02:04:33;;;;;;;27.40;3.65;;;;;;;;;;5001721;28;20163;-57
2022/02/02 02:07:01;;;;;;;40.20;3.55;;;;;;;;;;4982030;28;20109;-55
2022/02/02 02:09:29;;;;;;;36.00;3.63;;;;;;;;;;4988626;28;20144;-58
2022/02/02 02:11:57;;;;;;;27.60;3.38;;;;;;;;;;4985441;28;20046;-54
2022/02/02 02:17:08;;;;;;;35.15;3.40;;;;;;;;;;4998410;28;20050;-58
2022/02/02 02:19:37;;;;;;;25.90;3.83;;;;;;;;;;4999548;28;20050;-58
2022/02/02 02:22:09;;;;;;;27.25;3.35;;;;;;;;;;4988401;28;20047;-58
2022/02/02 02:24:39;;;;;;;27.92;3.22;;;;;;;;;;4980880;28;20065;-58
2022/02/02 02:27:06;;;;;;;37.42;3.58;;;;;;;;;;4986799;28;20062;-54
2022/02/02 02:29:48;;;;;;;32.22;3.10;;;;;;;;;;4993479;28;20128;-57
2022/02/02 02:32:29;;;;;;;31.25;3.25;;;;;;;;;;5004676;28;20121;-56
2022/02/02 02:35:16;;;;;;;23.73;3.08;;;;;;;;;;4997214;28;20137;-59
2022/02/02 02:38:01;;;;;;;51.47;4.93;;;;;;;;;;4984683;28;20042;-55
2022/02/02 02:55:47;;;;;;;21.25;2.78;;;;;;;;;;4987751;28;20054;-58
2022/02/02 02:56:57;;;;;;;27.98;4.05;;;;;;;;;;5003226;28;20062;-58
2022/02/02 02:59:35;;;;;;;30.40;3.30;;;;;;;;;;4996586;28;20088;-58
2022/02/02 03:02:41;;;;;;;33.65;3.22;;;;;;;;;;4985938;28;20061;-61
2022/02/02 03:29:54;;;;;;;26.23;3.13;;;;;;;;;;4962332;28;20058;-59
2022/02/02 03:32:46;;;;;;;26.48;3.58;;;;;;;;;;4982130;28;20069;-62
2022/02/02 03:35:23;;;;;;;32.63;3.35;;;;;;;;;;4982828;28;20132;-62
2022/02/02 03:51:39;;;;;;;45.05;4.22;;;;;;;;;;4997215;28;20053;-58
2022/02/02 03:57:20;;;;;;;25.17;3.42;;;;;;;;;;4980469;28;20054;-58
2022/02/02 03:59:58;;;;;;;31.10;3.83;;;;;;;;;;4987062;28;20058;-60
2022/02/02 04:02:45;;;;;;;26.23;2.97;;;;;;;;;;4981433;28;20120;-60
2022/02/02 04:05:32;;;;;;;19.10;2.78;;;;;;;;;;4986931;28;20061;-61
2022/02/02 04:08:16;;;;;;;38.10;3.60;;;;;;;;;;4981271;28;20054;-58
2022/02/02 04:10:42;;;;;;;34.00;4.25;;;;;;;;;;5002213;28;20058;-59
2022/02/02 04:13:19;;;;;;;30.67;3.75;;;;;;;;;;4982073;28;20050;-60
2022/02/02 04:37:53;;;;;;;23.75;3.25;;;;;;;;;;4999588;28;20085;-58
2022/02/02 04:51:41;;;;;;;28.38;3.67;;;;;;;;;;5002659;28;20081;-58
2022/02/02 04:54:21;;;;;;;42.80;4.53;;;;;;;;;;4997046;28;20157;-56
2022/02/02 04:57:28;;;;;;;26.30;3.78;;;;;;;;;;5001704;28;20089;-58
2022/02/02 05:00:12;;;;;;;30.00;3.72;;;;;;;;;;4980982;28;20073;-58
2022/02/02 05:08:13;;;;;;;24.85;3.38;;;;;;;;;;5002850;28;20059;-58
2022/02/02 05:10:50;;;;;;;44.90;4.30;;;;;;;;;;4981432;28;20145;-58
2022/02/02 05:16:21;;;;;;;29.67;3.72;;;;;;;;;;4943036;28;20063;-56
2022/02/02 05:22:03;;;;;;;29.05;3.53;;;;;;;;;;4979443;28;20054;-56
2022/02/02 05:49:47;;;;;;;23.42;2.15;;;;;;;;;;4987091;28;20061;-56
2022/02/02 05:52:14;;;;;;;21.70;3.13;;;;;;;;;;4994141;28;20062;-56
2022/02/02 05:54:41;;;;;;;22.58;2.63;;;;;;;;;;5005865;28;20046;-54
2022/02/02 05:57:12;;;;;;;36.50;3.72;;;;;;;;;;5000566;28;20102;-55
2022/02/02 05:59:40;;;;;;;27.00;2.85;;;;;;;;;;4989066;28;20054;-59
2022/02/02 06:02:10;;;;;;;24.70;2.63;;;;;;;;;;4983088;28;20105;-60
2022/02/02 06:04:38;;;;;;;33.95;3.28;;;;;;;;;;4988812;28;20061;-58
2022/02/02 06:07:04;;;;;;;16.60;2.55;;;;;;;;;;5000206;28;20169;-56
2022/02/02 06:09:35;;;;;;;18.80;2.17;;;;;;;;;;4988863;28;20050;-58
2022/02/02 06:12:02;;;;;;;28.63;3.13;;;;;;;;;;4982749;28;20058;-58
2022/02/02 06:14:31;;;;;;;25.52;3.60;;;;;;;;;;4984824;28;20062;-61
2022/02/02 06:17:02;;;;;;;24.20;2.60;;;;;;;;;;4997350;28;20112;-57
2022/02/02 06:19:28;;;;;;;34.53;4.32;;;;;;;;;;5003425;28;20113;-58
2022/02/02 06:21:57;;;;;;;20.02;2.88;;;;;;;;;;4980940;28;20141;-60
2022/02/02 06:24:23;;;;;;;;;;;;;;;;;;5003997;28;20050;-57
2022/02/02 06:26:50;;;;;;;23.45;2.40;;;;;;;;;;5001843;28;19922;-57
2022/02/02 06:29:17;;;;;;;27.00;3.10;;;;;;;;;;5000552;28;20104;-56
2022/02/02 06:31:46;;;;;;;25.83;2.88;;;;;;;;;;5002287;28;20065;-60
2022/02/02 06:34:13;;;;;;;24.55;2.80;;;;;;;;;;4981171;28;20051;-55
2022/02/02 06:36:40;;;;;;;14.60;2.08;;;;;;;;;;4987445;28;20074;-56
2022/02/02 06:39:08;;;;;;;26.23;2.30;;;;;;;;;;4980539;28;20062;-61
2022/02/02 06:41:35;;;;;;;22.48;2.95;;;;;;;;;;4987286;28;20054;-58
2022/02/02 06:44:03;;;;;;;19.33;2.80;;;;;;;;;;4981164;28;20058;-59
2022/02/02 06:46:32;;;;;;;24.42;4.38;;;;;;;;;;4987532;28;20058;-58
2022/02/02 06:49:00;;;;;;;23.10;2.15;;;;;;;;;;4981645;28;20046;-60
2022/02/02 06:51:33;;;;;;;20.02;3.20;;;;;;;;;;4987415;28;20061;-59
2022/02/02 06:54:05;;;;;;;25.88;3.20;;;;;;;;;;4980248;28;20069;-58
2022/02/02 06:56:40;;;;;;;19.23;2.30;;;;;;;;;;4986374;28;20128;-56
2022/02/02 06:59:22;;;;;;;20.98;2.80;;;;;;;;;;4980869;28;20054;-55
2022/02/02 07:02:01;;;;;;;20.42;3.13;;;;;;;;;;4987172;28;20050;-59
2022/02/02 07:04:48;;;;;;;20.40;2.42;;;;;;;;;;4981335;28;20054;-59
2022/02/02 07:07:30;;;;;;;11.82;2.10;;;;;;;;;;5002099;28;20122;-58
2022/02/02 07:10:10;;;;;;;18.63;2.08;;;;;;;;;;4997339;28;20137;-56
2022/02/02 07:12:52;;;;;;;34.17;2.97;;;;;;;;;;4987703;28;20069;-59
2022/02/02 07:15:25;;;;;;;15.73;2.85;;;;;;;;;;4998589;28;20054;-59
2022/02/02 07:18:08;;;;;;;23.10;2.97;;;;;;;;;;4990345;28;20149;-60
2022/02/02 07:20:45;;;;;;;18.42;3.53;;;;;;;;;;4998666;28;20065;-60
2022/02/02 07:23:34;;;;;;;15.25;2.20;;;;;;;;;;4985650;28;20126;-56
2022/02/02 07:28:56;;;;;;;12.60;1.90;;;;;;;;;;4986705;28;20169;-58
2022/02/02 07:31:36;;;;;;;25.45;2.08;;;;;;;;;;4998439;28;20058;-54
2022/02/02 07:34:05;;;;;;;18.30;2.08;;;;;;;;;;5004230;28;20064;-51
2022/02/02 07:36:37;;;;;;;15.00;1.95;;;;;;;;;;4981970;28;20073;-55
2022/02/02 07:39:07;;;;;;;16.10;2.22;;;;;;;;;;5004144;28;20149;-55
2022/02/02 07:41:36;;;;;;;16.67;2.47;;;;;;;;;;4997545;28;20371;-54
2022/02/02 07:44:08;;;;;;;10.85;2.38;;;;;;;;;;4987211;28;20058;-54
2022/02/02 07:46:37;;;;;;;26.30;2.38;;;;;;;;;;4981828;28;20073;-53
2022/02/02 07:49:03;;;;;;;20.40;2.47;;;;;;;;;;4987266;28;20069;-57
2022/02/02 07:51:37;;;;;;;16.67;2.80;;;;;;;;;;4980868;28;20058;-53
2022/02/02 07:54:07;;;;;;;20.15;2.72;;;;;;;;;;5003330;28;20057;-58
2022/02/02 07:56:40;;;;;;;18.15;2.35;;;;;;;;;;4981278;28;20051;-53
2022/02/02 07:59:18;;;;;;;21.25;2.67;;;;;;;;;;4987168;28;20118;-53
2022/02/02 08:01:47;;;;;;;21.30;2.87;;;;;;;;;;4981463;28;20076;-54
2022/02/02 08:04:15;;;;;;;32.88;2.50;;;;;;;;;;4986793;28;20059;-55
2022/02/02 08:06:49;;;;;;;20.25;2.88;;;;;;;;;;4981950;28;20053;-55
2022/02/02 08:09:24;;;;;;;23.08;2.75;;;;;;;;;;4987716;28;20077;-53
2022/02/02 08:11:53;;;;;;;12.88;2.35;;;;;;;;;;4983165;28;20052;-54
2022/02/02 08:14:21;;;;;;;20.23;2.83;;;;;;;;;;5003829;28;20104;-50
2022/02/02 08:16:47;;;;;;;23.25;3.10;;;;;;;;;;4996946;28;20046;-57
2022/02/02 08:19:16;;;;;;;25.85;2.88;;;;;;;;;;4987008;28;20054;-53
2022/02/02 08:21:45;;;;;;;22.35;2.50;;;;;;;;;;4981518;28;20054;-51
2022/02/02 08:24:13;;;;;;;28.00;2.92;;;;;;;;;;5003702;28;20050;-54
2022/02/02 08:26:40;;;;;;;16.15;2.08;;;;;;;;;;4997231;28;20049;-51
2022/02/02 08:29:08;;;;;;;21.67;2.00;;;;;;;;;;4987332;28;20445;-55
2022/02/02 08:31:36;;;;;;;18.85;2.90;;;;;;;;;;4987152;28;20061;-57
2022/02/02 08:34:08;;;;;;;23.10;2.88;;;;;;;;;;4997595;28;20054;-54
2022/02/02 08:36:35;;;;;;;21.65;2.85;;;;;;;;;;5001393;28;20069;-56
2022/02/02 08:39:14;;;;;;;23.83;2.75;;;;;;;;;;4982122;28;20046;-55
2022/02/02 08:41:47;;;;;;;24.50;2.22;;;;;;;;;;4987400;28;20054;-59
2022/02/02 08:44:18;;;;;;;28.60;3.05;;;;;;;;;;4982204;28;20065;-59
2022/02/02 08:46:53;;;;;;;31.02;2.83;;;;;;;;;;4972987;28;20058;-61
2022/02/02 08:49:20;;;;;;;20.08;3.45;;;;;;;;;;4983246;28;20046;-61
2022/02/02 08:51:47;;;;;;;22.52;2.92;;;;;;;;;;4987806;28;20116;-58
2022/02/02 08:54:24;;;;;;;27.17;3.20;;;;;;;;;;4980335;28;20089;-58
2022/02/02 08:57:15;;;;;;;44.30;7.07;;;;;;;;;;4987012;28;20054;-57
2022/02/02 08:59:48;;;;;;;38.97;6.57;;;;;;;;;;4981531;28;20054;-57
2022/02/02 09:02:19;;;;;;;24.77;3.63;;;;;;;;;;4988237;28;20143;-59
2022/02/02 09:07:34;;;;;;;22.35;2.53;;;;;;;;;;5006435;28;20053;-56
2022/02/02 09:10:07;;;;;;;20.77;2.90;;;;;;;;;;4982163;28;20061;-57
2022/02/02 09:21:49;;;;;;;22.88;2.88;;;;;;;;;;5000099;28;20085;-57
2022/02/02 09:24:07;;;;;;;29.05;2.80;;;;;;;;;;5000570;28;20101;-59
2022/02/02 09:32:33;;;;;;;22.95;3.03;;;;;;;;;;5006437;28;20053;-59
2022/02/02 09:35:00;;;;;;;24.60;2.40;;;;;;;;;;5000301;28;20109;-54
2022/02/02 09:37:27;;;;;;;21.27;3.58;;;;;;;;;;4990130;28;20284;-58
2022/02/02 09:40:05;;;;;;;26.02;3.38;;;;;;;;;;4984605;28;20138;-57
2022/02/02 09:42:35;;;;;;;26.33;2.78;;;;;;;;;;4990461;28;20058;-60
2022/02/02 09:45:08;;;;;;;29.67;3.78;;;;;;;;;;4985311;28;20085;-55
2022/02/02 09:47:43;;;;;;;36.72;3.78;;;;;;;;;;4990909;28;20046;-57
2022/02/02 09:50:16;;;;;;;38.42;4.18;;;;;;;;;;4984900;28;20783;-60
2022/02/02 09:52:51;;;;;;;30.55;2.85;;;;;;;;;;4989685;28;20162;-59
2022/02/02 09:55:31;;;;;;;29.92;3.38;;;;;;;;;;4984683;28;20065;-59
2022/02/02 09:58:23;;;;;;;44.90;3.78;;;;;;;;;;4989737;28;20057;-59
2022/02/02 10:01:16;;;;;;;29.00;3.35;;;;;;;;;;4984525;28;20058;-59
2022/02/02 10:03:54;;;;;;;18.27;3.03;;;;;;;;;;4988481;28;20085;-60
2022/02/02 10:06:45;;;;;;;22.98;2.95;;;;;;;;;;4999459;28;20073;-60
2022/02/02 10:09:20;;;;;;;27.50;3.78;;;;;;;;;;4989696;28;20132;-59
2022/02/02 10:14:51;;;;;;;23.55;3.35;;;;;;;;;;4997933;28;20137;-60
2022/02/02 10:17:18;;;;;;;41.60;5.90;;;;;;;;;;4985311;28;20230;-61
2022/02/02 10:19:44;;;;;;;29.63;3.63;;;;;;;;;;4992105;28;20051;-60
2022/02/02 10:22:22;;;;;;;24.80;4.15;;;;;;;;;;4985227;28;20042;-59
2022/02/02 10:24:52;;;;;;;24.33;2.95;;;;;;;;;;4988993;28;20116;-59
2022/02/02 10:27:23;;;;;;;32.83;2.95;;;;;;;;;;4982920;28;20055;-63
2022/02/02 10:29:51;;;;;;;27.20;2.90;;;;;;;;;;4988938;28;20062;-60
2022/02/02 10:32:32;;;;;;;21.47;2.90;;;;;;;;;;4998257;28;20062;-56
2022/02/02 10:34:59;;;;;;;18.90;3.05;;;;;;;;;;4988179;28;20046;-57
2022/02/02 10:37:30;;;;;;;30.35;3.15;;;;;;;;;;4998724;28;20047;-59
2022/02/02 10:39:57;;;;;;;32.13;2.90;;;;;;;;;;4988841;28;20109;-59
2022/02/02 10:42:36;;;;;;;24.65;2.55;;;;;;;;;;4982207;28;20046;-59
2022/02/02 10:45:24;;;;;;;25.30;3.10;;;;;;;;;;4988291;28;20054;-59
2022/02/02 10:47:59;;;;;;;38.95;4.22;;;;;;;;;;4982732;28;20046;-57
2022/02/02 10:50:32;;;;;;;20.88;3.47;;;;;;;;;;4989060;28;20054;-55
2022/02/02 10:53:13;;;;;;;17.75;2.45;;;;;;;;;;4998455;28;20054;-60
2022/02/02 10:55:57;;;;;;;26.77;2.60;;;;;;;;;;4987803;28;20062;-59
2022/02/02 10:58:31;;;;;;;22.60;2.53;;;;;;;;;;4982749;28;20055;-58
2022/02/02 11:01:21;;;;;;;26.33;3.63;;;;;;;;;;4988576;28;20147;-60
2022/02/02 11:06:37;;;;;;;14.27;2.40;;;;;;;;;;5003254;28;20185;-58
2022/02/02 11:09:04;;;;;;;24.25;3.20;;;;;;;;;;4982045;28;20145;-60
2022/02/02 11:11:33;;;;;;;23.85;3.17;;;;;;;;;;4988062;28;20058;-60
2022/02/02 11:14:03;;;;;;;21.95;2.88;;;;;;;;;;4998836;28;20058;-60
2022/02/02 11:16:35;;;;;;;24.00;3.33;;;;;;;;;;4988529;28;20074;-60
2022/02/02 11:19:02;;;;;;;19.13;2.78;;;;;;;;;;4983355;28;20059;-60
2022/02/02 11:21:31;;;;;;;24.58;2.97;;;;;;;;;;5004395;28;20086;-57
2022/02/02 11:23:59;;;;;;;22.02;3.13;;;;;;;;;;4997532;28;20054;-58
2022/02/02 11:26:44;;;;;;;22.35;2.42;;;;;;;;;;4986840;28;20050;-59
2022/02/02 11:29:11;;;;;;;19.67;2.65;;;;;;;;;;4982490;28;20050;-58
2022/02/02 11:31:53;;;;;;;13.82;2.45;;;;;;;;;;4987501;28;20062;-58
2022/02/02 11:34:21;;;;;;;17.08;2.55;;;;;;;;;;4981100;28;20046;-61
2022/02/02 11:36:54;;;;;;;21.00;3.05;;;;;;;;;;4987769;28;20079;-60
2022/02/02 11:39:32;;;;;;;26.58;3.30;;;;;;;;;;4982437;28;20077;-58
2022/02/02 11:42:09;;;;;;;21.63;2.65;;;;;;;;;;4987494;28;20152;-58
2022/02/02 11:44:50;;;;;;;20.88;2.10;;;;;;;;;;4981826;28;20074;-57
2022/02/02 11:47:37;;;;;;;24.40;3.10;;;;;;;;;;4987780;28;20049;-60
2022/02/02 11:50:07;;;;;;;20.53;2.07;;;;;;;;;;4999243;28;20050;-57
2022/02/02 11:52:44;;;;;;;30.55;3.45;;;;;;;;;;4989986;28;20046;-62
2022/02/02 11:55:45;;;;;;;21.05;2.67;;;;;;;;;;4983261;28;20054;-60
2022/02/02 11:58:17;;;;;;;27.70;2.90;;;;;;;;;;4913111;29;20146;-58
2022/02/02 12:00:56;;;;;;;29.33;3.28;;;;;;;;;;4900007;29;20056;-58
2022/02/02 12:03:46;;;;;;;14.60;2.50;;;;;;;;;;4950348;28;20063;-60
2022/02/02 12:06:29;;;;;;;18.85;2.75;;;;;;;;;;4988691;28;20085;-60
2022/02/02 12:09:05;;;;;;;25.23;3.17;;;;;;;;;;4986124;28;20056;-58
2022/02/02 12:20:59;;;;;;;11.68;1.88;;;;;;;;;;5002861;28;20057;-56
2022/02/02 12:48:22;;;;;;;12.48;2.25;;;;;;;;;;4981190;28;20058;-60
2022/02/02 12:54:04;;;;;;;18.92;2.88;;;;;;;;;;4981336;28;20174;-60
2022/02/02 12:56:34;;;;;;;19.00;2.08;;;;;;;;;;4978148;28;20137;-61
2022/02/02 12:59:33;;;;;;;20.52;2.65;;;;;;;;;;4980524;28;20141;-61
2022/02/02 13:02:07;;;;;;;21.83;2.50;;;;;;;;;;4986028;28;20054;-61
2022/02/02 13:04:34;;;;;;;16.00;2.28;;;;;;;;;;4980640;28;20200;-58
2022/02/02 13:07:08;;;;;;;20.65;2.47;;;;;;;;;;4986630;28;20056;-56
2022/02/02 13:09:35;;;;;;;19.33;2.03;;;;;;;;;;4997431;28;20054;-56
2022/02/02 13:12:16;;;;;;;15.57;1.95;;;;;;;;;;5002790;28;20042;-57
2022/02/02 13:15:04;;;;;;;20.10;2.92;;;;;;;;;;4979338;28;20057;-56
2022/02/02 13:17:39;;;;;;;16.50;2.55;;;;;;;;;;4987108;28;20061;-57
2022/02/02 13:20:10;;;;;;;12.93;1.92;;;;;;;;;;4980737;28;20065;-56
2022/02/02 13:22:39;;;;;;;16.67;2.22;;;;;;;;;;5003924;28;20090;-56
2022/02/02 13:25:17;;;;;;;15.50;2.47;;;;;;;;;;4983520;28;20053;-57
2022/02/02 13:27:46;;;;;;;15.13;1.88;;;;;;;;;;4988770;28;20050;-59
2022/02/02 13:30:28;;;;;;;18.00;1.92;;;;;;;;;;4980808;28;20054;-56
2022/02/02 13:33:06;;;;;;;14.05;2.08;;;;;;;;;;4985720;28;20145;-56
2022/02/02 13:35:40;;;;;;;11.30;1.80;;;;;;;;;;4981134;28;20170;-57
2022/02/02 13:38:18;;;;;;;15.55;1.83;;;;;;;;;;4986157;28;20078;-59
2022/02/02 13:43:52;;;;;;;10.50;1.92;;;;;;;;;;5000122;28;20054;-59
2022/02/02 13:46:38;;;;;;;17.42;3.00;;;;;;;;;;4998478;28;20133;-59
2022/02/02 13:49:32;;;;;;;9.43;2.10;;;;;;;;;;4998490;28;20146;-58
2022/02/02 13:52:21;;;;;;;15.63;2.35;;;;;;;;;;4987704;28;20130;-56
2022/02/02 13:54:55;;;;;;;11.95;1.73;;;;;;;;;;4997400;28;20121;-57
2022/02/02 14:00:28;;;;;;;14.65;1.95;;;;;;;;;;4982488;28;20093;-58
2022/02/02 14:11:46;;;;;;;;;;;;;;;;;;4999739;28;20050;-57
2022/02/02 14:33:25;;;;;;;12.32;1.88;;;;;;;;;;4985213;28;20166;-58
2022/02/02 14:35:56;;;;;;;14.50;2.00;;;;;;;;;;4982646;28;20173;-53
2022/02/02 14:38:24;;;;;;;23.63;3.25;;;;;;;;;;4985555;28;20061;-56
2022/02/02 14:41:01;;;;;;;16.45;2.38;;;;;;;;;;4985409;28;20043;-56
2022/02/02 14:43:34;;;;;;;12.05;2.20;;;;;;;;;;4984825;28;20145;-56
2022/02/02 14:46:02;;;;;;;8.25;1.35;;;;;;;;;;4989378;28;20057;-54
2022/02/02 14:48:33;;;;;;;20.58;2.60;;;;;;;;;;4982607;28;20169;-58
2022/02/02 14:51:06;;;;;;;24.48;2.20;;;;;;;;;;4980710;28;20062;-57
2022/02/02 14:53:42;;;;;;;13.75;1.95;;;;;;;;;;4997644;28;20144;-58
2022/02/02 19:03:47;;;;;;;8.50;2.88;;;;;;;;;;5003417;23;20057;-56
2022/02/02 19:06:48;;;;;;;9.30;3.60;;;;;;;;;;5035186;28;20060;-57
2022/02/02 19:15:32;;;;;;;9.27;3.65;;;;;;;;;;5017727;28;20045;-57
2022/02/02 19:31:45;;;;;;;12.70;4.93;;;;;;;;;;5042965;28;20055;-55
2022/02/02 19:56:22;;;;;;;10.55;3.90;;;;;;;;;;5038556;28;20067;-59
2022/02/02 20:04:40;;;;;;;12.10;4.47;;;;;;;;;;5012685;28;20066;-57
2022/02/02 20:07:23;;;;;;;12.90;5.10;;;;;;;;;;5040477;28;20049;-58
2022/02/02 20:10:15;;;;;;;10.63;3.40;;;;;;;;;;5032691;28;20059;-59
2022/02/02 20:12:42;;;;;;;8.88;3.42;;;;;;;;;;5040152;28;20053;-58
2022/02/02 20:15:10;;;;;;;23.67;8.57;;;;;;;;;;5033884;28;20104;-57
2022/02/02 20:17:38;;;;;;;19.92;6.82;;;;;;;;;;5042699;28;20126;-59
2022/02/02 20:20:13;;;;;;;14.13;5.50;;;;;;;;;;5033686;28;20049;-58
2022/02/02 20:22:42;;;;;;;12.15;6.25;;;;;;;;;;5040721;28;20064;-58
2022/02/02 20:25:11;;;;;;;21.42;5.68;;;;;;;;;;5037901;28;20057;-59
2022/02/02 20:27:38;;;;;;;15.45;5.70;;;;;;;;;;5044668;28;20053;-57
2022/02/02 20:30:05;;;;;;;13.55;5.38;;;;;;;;;;5035609;28;20049;-59
2022/02/02 20:32:33;;;;;;;12.80;4.68;;;;;;;;;;5039691;28;20060;-56
2022/02/02 20:35:00;;;;;;;15.95;6.15;;;;;;;;;;5041753;28;20063;-57
2022/02/02 20:37:28;;;;;;;15.02;6.03;;;;;;;;;;5037242;28;20049;-56
2022/02/02 20:39:57;;;;;;;14.70;5.47;;;;;;;;;;5042424;28;20073;-57
2022/02/02 20:42:33;;;;;;;18.30;6.88;;;;;;;;;;5034006;28;20045;-56
2022/02/02 21:04:31;;;;;;;28.05;9.25;;;;;;;;;;5045583;28;20117;-57
2022/02/02 21:07:19;;;;;;;19.23;5.90;;;;;;;;;;5039269;28;20103;-56
2022/02/02 21:09:53;;;;;;;17.35;6.75;;;;;;;;;;5046123;28;20057;-58
2022/02/02 21:15:12;;;;;;;18.40;7.30;;;;;;;;;;5048004;28;20060;-59
2022/02/02 21:17:39;;;;;;;21.95;7.72;;;;;;;;;;5037986;28;20052;-59
2022/02/02 21:20:12;;;;;;;21.00;7.45;;;;;;;;;;5045437;28;20067;-57
2022/02/02 21:22:49;;;;;;;22.48;8.30;;;;;;;;;;5037191;28;20161;-58
2022/02/02 21:25:32;;;;;;;25.02;8.52;;;;;;;;;;5043219;28;20063;-55
2022/02/02 21:28:02;;;;;;;20.85;8.05;;;;;;;;;;5037645;28;20138;-59
2022/02/02 21:30:30;;;;;;;18.92;7.57;;;;;;;;;;5043849;28;20059;-56
2022/02/02 21:32:57;;;;;;;26.38;8.63;;;;;;;;;;5038072;28;20060;-57
2022/02/02 21:35:24;;;;;;;23.73;8.88;;;;;;;;;;5027448;28;20049;-57
2022/02/02 21:37:58;;;;;;;23.38;8.23;;;;;;;;;;5038273;28;20144;-57
2022/02/02 21:40:27;;;;;;;18.70;7.00;;;;;;;;;;5045171;28;20057;-56
2022/02/02 21:42:55;;;;;;;24.20;9.15;;;;;;;;;;5038698;28;20057;-58
2022/02/02 21:45:22;;;;;;;17.75;7.85;;;;;;;;;;5044891;28;20159;-57
2022/02/02 21:47:50;;;;;;;26.48;8.95;;;;;;;;;;5044844;28;20432;-58
2022/02/02 21:50:18;;;;;;;20.80;7.30;;;;;;;;;;5039880;28;20060;-58
2022/02/02 21:52:45;;;;;;;;;;;;;;;;;;5043744;28;20350;-57
2022/02/02 21:55:12;;;;;;;18.88;7.78;;;;;;;;;;5039775;28;19929;-58
2022/02/02 21:57:39;;;;;;;25.88;9.45;;;;;;;;;;5042788;28;20052;-57
2022/02/02 22:00:07;;;;;;;24.20;8.30;;;;;;;;;;5036670;28;20076;-57
2022/02/02 22:02:35;;;;;;;25.30;8.53;;;;;;;;;;5040816;28;20053;-61
2022/02/02 22:05:07;;;;;;;18.87;6.87;;;;;;;;;;5017759;28;20133;-60
2022/02/02 22:07:34;;;;;;;20.10;7.70;;;;;;;;;;5026942;28;20314;-55
2022/02/02 22:10:04;;;;;;;19.52;8.18;;;;;;;;;;5020188;28;20053;-56
2022/02/02 22:12:33;;;;;;;23.08;7.55;;;;;;;;;;5027496;28;20057;-58
2022/02/02 22:15:00;;;;;;;23.13;9.05;;;;;;;;;;5022247;28;20064;-56
2022/02/02 22:17:26;;;;;;;18.02;7.32;;;;;;;;;;5028050;28;20049;-57
2022/02/02 22:19:55;;;;;;;23.42;9.07;;;;;;;;;;5018616;28;20114;-58
2022/02/02 22:22:24;;;;;;;21.60;9.43;;;;;;;;;;5027677;28;20103;-58
2022/02/02 22:24:50;;;;;;;;;;;;;;;;;;5019642;28;20053;-58
2022/02/02 22:27:17;;;;;;;17.48;7.45;;;;;;;;;;5027172;28;19960;-59
2022/02/02 22:29:43;;;;;;;21.55;9.05;;;;;;;;;;5023074;28;20107;-58
2022/02/02 22:32:10;;;;;;;22.40;9.65;;;;;;;;;;5026643;28;20057;-56
2022/02/02 22:34:37;;;;;;;20.17;8.15;;;;;;;;;;5026946;28;20055;-57
2022/02/02 22:37:04;;;;;;;21.48;9.40;;;;;;;;;;5018687;28;20130;-58
2022/02/02 22:39:31;;;;;;;18.02;7.15;;;;;;;;;;5029253;28;20041;-56
2022/02/02 22:41:59;;;;;;;20.00;7.80;;;;;;;;;;5021378;28;20048;-58
2022/02/02 22:44:30;;;;;;;22.45;9.02;;;;;;;;;;5028443;28;20856;-59
2022/02/02 22:47:03;;;;;;;21.00;9.05;;;;;;;;;;5024223;28;20053;-56
2022/02/02 22:49:29;;;;;;;23.42;9.25;;;;;;;;;;5030365;28;20212;-59
2022/02/02 22:51:56;;;;;;;17.65;7.85;;;;;;;;;;5021240;28;20099;-57
2022/02/02 22:54:23;;;;;;;19.92;9.15;;;;;;;;;;5027438;28;20139;-58
2022/02/02 22:56:51;;;;;;;22.42;9.10;;;;;;;;;;5021214;28;20060;-56
2022/02/02 22:59:17;;;;;;;24.60;9.60;;;;;;;;;;5027302;28;20061;-58
2022/02/02 23:01:51;;;;;;;16.85;7.45;;;;;;;;;;5020752;28;20348;-57
2022/02/02 23:04:17;;;;;;;16.10;7.10;;;;;;;;;;5035146;28;20075;-57
2022/02/02 23:06:44;;;;;;;18.92;7.80;;;;;;;;;;5038643;28;20045;-58
2022/02/02 23:09:12;;;;;;;25.48;11.20;;;;;;;;;;5040349;28;20049;-56
2022/02/02 23:11:41;;;;;;;17.25;7.93;;;;;;;;;;5038390;28;20055;-58
2022/02/02 23:14:10;;;;;;;19.38;7.75;;;;;;;;;;5046269;28;20049;-57
2022/02/02 23:16:43;;;;;;;20.85;8.15;;;;;;;;;;5041034;28;20056;-58
2022/02/02 23:19:09;;;;;;;17.15;7.13;;;;;;;;;;5027107;28;20068;-57
2022/02/02 23:21:36;;;;;;;21.00;8.93;;;;;;;;;;5025355;28;20119;-58
2022/02/02 23:24:04;;;;;;;16.90;7.88;;;;;;;;;;5044776;28;20063;-58
2022/02/02 23:26:33;;;;;;;15.48;7.00;;;;;;;;;;5031503;28;20053;-58
2022/02/02 23:29:00;;;;;;;14.52;6.70;;;;;;;;;;5021713;28;20080;-59
2022/02/02 23:31:28;;;;;;;18.30;6.65;;;;;;;;;;5026930;28;20095;-58
2022/02/02 23:33:55;;;;;;;19.60;7.22;;;;;;;;;;5036870;28;20056;-57
2022/02/02 23:36:22;;;;;;;16.52;7.70;;;;;;;;;;5047579;28;20056;-56
2022/02/02 23:38:49;;;;;;;17.08;7.35;;;;;;;;;;5040783;28;20049;-55
2022/02/02 23:44:02;;;;;;;16.13;7.85;;;;;;;;;;5006427;28;20084;-57
2022/02/02 23:46:33;;;;;;;19.27;7.53;;;;;;;;;;5047425;28;20418;-54
2022/02/02 23:49:02;;;;;;;18.77;7.93;;;;;;;;;;5041136;28;20052;-55
2022/02/02 23:51:34;;;;;;;16.35;7.88;;;;;;;;;;5045223;28;20076;-55
2022/02/02 23:54:01;;;;;;;25.77;9.82;;;;;;;;;;5039760;28;20061;-56
2022/02/02 23:56:38;;;;;;;21.13;8.52;;;;;;;;;;5046786;28;20064;-55
2022/02/02 23:59:07;;;;;;;19.67;8.60;;;;;;;;;;5029076;28;20059;-56
